sensor_id;sensor_type;location;lat;lon;timestamp;P1;durP1;ratioP1;P2;durP2;ratioP2
3189;SDS011;1606;51.946;10.558;2023-07-08T00:02:12;8.17;;;3.33;;
3189;SDS011;1606;51.946;10.558;2023-07-08T00:04:40;8.67;;;3.20;;
3189;SDS011;1606;51.946;10.558;2023-07-08T00:07:10;8.40;;;3.30;;
3189;SDS011;1606;51.946;10.558;2023-07-08T00:09:40;8.10;;;3.50;;
3189;SDS011;1606;51.946;10.558;2023-07-08T00:12:10;8.00;;;3.03;;
3189;SDS011;1606;51.946;10.558;2023-07-08T00:14:38;9.80;;;3.53;;
3189;SDS011;1606;51.946;10.558;2023-07-08T00:17:10;8.50;;;3.20;;
3189;SDS011;1606;51.946;10.558;2023-07-08T00:19:39;8.37;;;3.97;;
3189;SDS011;1606;51.946;10.558;2023-07-08T00:22:08;8.27;;;3.53;;
3189;SDS011;1606;51.946;10.558;2023-07-08T00:24:39;10.10;;;3.27;;
3189;SDS011;1606;51.946;10.558;2023-07-08T00:27:08;9.23;;;3.33;;
3189;SDS011;1606;51.946;10.558;2023-07-08T00:29:39;11.20;;;4.20;;
3189;SDS011;1606;51.946;10.558;2023-07-08T00:32:10;8.70;;;3.50;;
3189;SDS011;1606;51.946;10.558;2023-07-08T00:34:40;10.57;;;3.63;;
3189;SDS011;1606;51.946;10.558;2023-07-08T00:37:09;10.20;;;4.50;;
3189;SDS011;1606;51.946;10.558;2023-07-08T00:39:38;9.67;;;3.60;;
3189;SDS011;1606;51.946;10.558;2023-07-08T00:42:12;7.70;;;3.13;;
3189;SDS011;1606;51.946;10.558;2023-07-08T00:44:43;8.43;;;3.00;;
3189;SDS011;1606;51.946;10.558;2023-07-08T00:47:12;8.03;;;3.30;;
3189;SDS011;1606;51.946;10.558;2023-07-08T00:49:43;8.10;;;3.40;;
3189;SDS011;1606;51.946;10.558;2023-07-08T00:52:18;9.73;;;4.07;;
3189;SDS011;1606;51.946;10.558;2023-07-08T00:54:51;9.37;;;3.77;;
3189;SDS011;1606;51.946;10.558;2023-07-08T00:57:22;8.47;;;3.30;;
3189;SDS011;1606;51.946;10.558;2023-07-08T00:59:53;8.83;;;3.53;;
3189;SDS011;1606;51.946;10.558;2023-07-08T01:02:24;9.93;;;3.70;;
3189;SDS011;1606;51.946;10.558;2023-07-08T01:04:55;9.87;;;3.90;;
3189;SDS011;1606;51.946;10.558;2023-07-08T01:07:28;11.33;;;4.00;;
3189;SDS011;1606;51.946;10.558;2023-07-08T01:10:01;8.93;;;3.30;;
3189;SDS011;1606;51.946;10.558;2023-07-08T01:12:33;10.60;;;3.27;;
3189;SDS011;1606;51.946;10.558;2023-07-08T01:15:05;11.07;;;3.63;;
3189;SDS011;1606;51.946;10.558;2023-07-08T01:17:34;8.90;;;3.87;;
3189;SDS011;1606;51.946;10.558;2023-07-08T01:20:02;13.93;;;3.60;;
3189;SDS011;1606;51.946;10.558;2023-07-08T01:22:35;14.77;;;5.20;;
3189;SDS011;1606;51.946;10.558;2023-07-08T01:25:04;9.57;;;3.57;;
3189;SDS011;1606;51.946;10.558;2023-07-08T01:27:34;9.93;;;4.10;;
3189;SDS011;1606;51.946;10.558;2023-07-08T01:30:05;9.20;;;3.70;;
3189;SDS011;1606;51.946;10.558;2023-07-08T01:32:35;9.33;;;3.87;;
3189;SDS011;1606;51.946;10.558;2023-07-08T01:35:05;9.40;;;3.67;;
3189;SDS011;1606;51.946;10.558;2023-07-08T01:37:36;8.53;;;3.50;;
3189;SDS011;1606;51.946;10.558;2023-07-08T01:40:23;12.37;;;3.43;;
3189;SDS011;1606;51.946;10.558;2023-07-08T01:42:52;11.50;;;4.00;;
3189;SDS011;1606;51.946;10.558;2023-07-08T01:45:22;8.77;;;3.50;;
3189;SDS011;1606;51.946;10.558;2023-07-08T01:47:53;10.40;;;3.77;;
3189;SDS011;1606;51.946;10.558;2023-07-08T01:50:24;12.33;;;3.83;;
3189;SDS011;1606;51.946;10.558;2023-07-08T01:52:55;11.53;;;4.10;;
3189;SDS011;1606;51.946;10.558;2023-07-08T01:55:25;10.30;;;4.30;;
3189;SDS011;1606;51.946;10.558;2023-07-08T01:57:54;10.13;;;4.57;;
3189;SDS011;1606;51.946;10.558;2023-07-08T02:00:22;9.50;;;3.80;;
3189;SDS011;1606;51.946;10.558;2023-07-08T02:02:51;10.10;;;4.07;;
3189;SDS011;1606;51.946;10.558;2023-07-08T02:05:18;12.10;;;4.70;;
3189;SDS011;1606;51.946;10.558;2023-07-08T02:07:46;8.43;;;4.27;;
3189;SDS011;1606;51.946;10.558;2023-07-08T02:10:15;9.03;;;3.57;;
3189;SDS011;1606;51.946;10.558;2023-07-08T02:12:43;9.50;;;3.50;;
3189;SDS011;1606;51.946;10.558;2023-07-08T02:15:11;8.20;;;3.70;;
3189;SDS011;1606;51.946;10.558;2023-07-08T02:17:41;9.77;;;4.13;;
3189;SDS011;1606;51.946;10.558;2023-07-08T02:20:09;11.13;;;4.43;;
3189;SDS011;1606;51.946;10.558;2023-07-08T02:22:37;11.60;;;4.43;;
3189;SDS011;1606;51.946;10.558;2023-07-08T02:25:05;9.40;;;4.10;;
3189;SDS011;1606;51.946;10.558;2023-07-08T02:27:36;9.87;;;3.27;;
3189;SDS011;1606;51.946;10.558;2023-07-08T02:30:05;9.87;;;3.83;;
3189;SDS011;1606;51.946;10.558;2023-07-08T02:32:33;10.07;;;3.57;;
3189;SDS011;1606;51.946;10.558;2023-07-08T02:35:05;14.67;;;4.50;;
3189;SDS011;1606;51.946;10.558;2023-07-08T02:37:33;8.87;;;4.03;;
3189;SDS011;1606;51.946;10.558;2023-07-08T02:40:01;11.40;;;4.30;;
3189;SDS011;1606;51.946;10.558;2023-07-08T02:42:29;10.87;;;4.23;;
3189;SDS011;1606;51.946;10.558;2023-07-08T02:44:59;12.53;;;4.70;;
3189;SDS011;1606;51.946;10.558;2023-07-08T02:47:26;16.23;;;3.70;;
3189;SDS011;1606;51.946;10.558;2023-07-08T02:49:54;10.30;;;4.33;;
3189;SDS011;1606;51.946;10.558;2023-07-08T02:52:22;10.50;;;4.13;;
3189;SDS011;1606;51.946;10.558;2023-07-08T02:54:50;10.33;;;4.70;;
3189;SDS011;1606;51.946;10.558;2023-07-08T02:57:17;11.77;;;4.57;;
3189;SDS011;1606;51.946;10.558;2023-07-08T02:59:45;11.07;;;4.57;;
3189;SDS011;1606;51.946;10.558;2023-07-08T03:02:14;10.03;;;5.50;;
3189;SDS011;1606;51.946;10.558;2023-07-08T03:04:42;9.70;;;3.92;;
3189;SDS011;1606;51.946;10.558;2023-07-08T03:07:10;10.13;;;5.00;;
3189;SDS011;1606;51.946;10.558;2023-07-08T03:09:38;11.03;;;4.17;;
3189;SDS011;1606;51.946;10.558;2023-07-08T03:12:07;14.90;;;4.27;;
3189;SDS011;1606;51.946;10.558;2023-07-08T03:14:36;10.70;;;4.67;;
3189;SDS011;1606;51.946;10.558;2023-07-08T03:17:04;10.80;;;4.60;;
3189;SDS011;1606;51.946;10.558;2023-07-08T03:19:34;10.67;;;4.60;;
3189;SDS011;1606;51.946;10.558;2023-07-08T03:22:02;10.20;;;5.17;;
3189;SDS011;1606;51.946;10.558;2023-07-08T03:24:31;12.60;;;5.27;;
3189;SDS011;1606;51.946;10.558;2023-07-08T03:26:59;11.93;;;5.50;;
3189;SDS011;1606;51.946;10.558;2023-07-08T03:29:31;13.80;;;6.00;;
3189;SDS011;1606;51.946;10.558;2023-07-08T03:31:58;11.37;;;4.80;;
3189;SDS011;1606;51.946;10.558;2023-07-08T03:34:26;13.20;;;5.50;;
3189;SDS011;1606;51.946;10.558;2023-07-08T03:36:55;12.63;;;5.37;;
3189;SDS011;1606;51.946;10.558;2023-07-08T03:39:23;14.87;;;5.67;;
3189;SDS011;1606;51.946;10.558;2023-07-08T03:41:52;11.27;;;5.50;;
3189;SDS011;1606;51.946;10.558;2023-07-08T03:44:20;15.17;;;6.20;;
3189;SDS011;1606;51.946;10.558;2023-07-08T03:46:49;14.60;;;6.33;;
3189;SDS011;1606;51.946;10.558;2023-07-08T03:49:17;14.83;;;5.83;;
3189;SDS011;1606;51.946;10.558;2023-07-08T03:51:49;11.43;;;5.50;;
3189;SDS011;1606;51.946;10.558;2023-07-08T03:54:19;12.10;;;5.90;;
3189;SDS011;1606;51.946;10.558;2023-07-08T03:56:49;16.83;;;5.63;;
3189;SDS011;1606;51.946;10.558;2023-07-08T03:59:17;14.87;;;5.60;;
3189;SDS011;1606;51.946;10.558;2023-07-08T04:01:45;11.43;;;5.30;;
3189;SDS011;1606;51.946;10.558;2023-07-08T04:04:13;11.27;;;5.40;;
3189;SDS011;1606;51.946;10.558;2023-07-08T04:06:42;11.50;;;5.33;;
3189;SDS011;1606;51.946;10.558;2023-07-08T04:09:11;11.33;;;5.90;;
3189;SDS011;1606;51.946;10.558;2023-07-08T04:11:40;12.67;;;6.13;;
3189;SDS011;1606;51.946;10.558;2023-07-08T04:14:08;11.97;;;5.80;;
3189;SDS011;1606;51.946;10.558;2023-07-08T04:16:44;12.60;;;6.23;;
3189;SDS011;1606;51.946;10.558;2023-07-08T04:19:15;12.73;;;5.93;;
3189;SDS011;1606;51.946;10.558;2023-07-08T04:21:43;13.87;;;6.10;;
3189;SDS011;1606;51.946;10.558;2023-07-08T04:24:12;14.13;;;5.93;;
3189;SDS011;1606;51.946;10.558;2023-07-08T04:26:42;13.30;;;6.63;;
3189;SDS011;1606;51.946;10.558;2023-07-08T04:29:13;11.03;;;5.10;;
3189;SDS011;1606;51.946;10.558;2023-07-08T04:31:42;11.87;;;6.03;;
3189;SDS011;1606;51.946;10.558;2023-07-08T04:34:10;11.60;;;5.70;;
3189;SDS011;1606;51.946;10.558;2023-07-08T04:36:39;11.83;;;4.87;;
3189;SDS011;1606;51.946;10.558;2023-07-08T04:39:07;12.50;;;5.60;;
3189;SDS011;1606;51.946;10.558;2023-07-08T04:41:36;15.03;;;6.53;;
3189;SDS011;1606;51.946;10.558;2023-07-08T04:44:08;14.80;;;5.57;;
3189;SDS011;1606;51.946;10.558;2023-07-08T04:46:37;11.40;;;5.97;;
3189;SDS011;1606;51.946;10.558;2023-07-08T04:49:08;15.17;;;6.33;;
3189;SDS011;1606;51.946;10.558;2023-07-08T04:51:37;14.20;;;6.77;;
3189;SDS011;1606;51.946;10.558;2023-07-08T04:54:05;15.80;;;5.57;;
3189;SDS011;1606;51.946;10.558;2023-07-08T04:56:35;13.73;;;6.07;;
3189;SDS011;1606;51.946;10.558;2023-07-08T04:59:04;14.40;;;7.03;;
3189;SDS011;1606;51.946;10.558;2023-07-08T05:01:34;19.50;;;6.90;;
3189;SDS011;1606;51.946;10.558;2023-07-08T05:04:02;14.63;;;6.80;;
3189;SDS011;1606;51.946;10.558;2023-07-08T05:06:31;16.70;;;6.90;;
3189;SDS011;1606;51.946;10.558;2023-07-08T05:09:00;17.90;;;6.57;;
3189;SDS011;1606;51.946;10.558;2023-07-08T05:11:29;12.20;;;6.03;;
3189;SDS011;1606;51.946;10.558;2023-07-08T05:13:57;17.80;;;6.90;;
3189;SDS011;1606;51.946;10.558;2023-07-08T05:16:26;17.43;;;7.03;;
3189;SDS011;1606;51.946;10.558;2023-07-08T05:18:55;16.40;;;5.83;;
3189;SDS011;1606;51.946;10.558;2023-07-08T05:21:23;13.37;;;5.43;;
3189;SDS011;1606;51.946;10.558;2023-07-08T05:23:53;13.80;;;6.10;;
3189;SDS011;1606;51.946;10.558;2023-07-08T05:26:21;13.57;;;5.87;;
3189;SDS011;1606;51.946;10.558;2023-07-08T05:28:49;14.70;;;5.40;;
3189;SDS011;1606;51.946;10.558;2023-07-08T05:31:16;13.48;;;5.80;;
3189;SDS011;1606;51.946;10.558;2023-07-08T05:33:44;12.30;;;4.60;;
3189;SDS011;1606;51.946;10.558;2023-07-08T05:36:13;14.00;;;5.43;;
3189;SDS011;1606;51.946;10.558;2023-07-08T05:38:41;9.50;;;5.17;;
3189;SDS011;1606;51.946;10.558;2023-07-08T05:41:09;10.10;;;4.87;;
3189;SDS011;1606;51.946;10.558;2023-07-08T05:43:38;10.53;;;5.23;;
3189;SDS011;1606;51.946;10.558;2023-07-08T05:46:07;13.43;;;4.70;;
3189;SDS011;1606;51.946;10.558;2023-07-08T05:48:38;9.57;;;4.50;;
3189;SDS011;1606;51.946;10.558;2023-07-08T05:51:06;9.30;;;4.83;;
3189;SDS011;1606;51.946;10.558;2023-07-08T05:53:35;12.13;;;4.77;;
3189;SDS011;1606;51.946;10.558;2023-07-08T05:56:03;10.37;;;4.57;;
3189;SDS011;1606;51.946;10.558;2023-07-08T05:58:31;11.98;;;4.57;;
3189;SDS011;1606;51.946;10.558;2023-07-08T06:00:59;10.80;;;4.67;;
3189;SDS011;1606;51.946;10.558;2023-07-08T06:03:28;11.50;;;4.50;;
3189;SDS011;1606;51.946;10.558;2023-07-08T06:05:56;14.83;;;4.93;;
3189;SDS011;1606;51.946;10.558;2023-07-08T06:08:24;9.37;;;4.87;;
3189;SDS011;1606;51.946;10.558;2023-07-08T06:10:53;10.73;;;5.03;;
3189;SDS011;1606;51.946;10.558;2023-07-08T06:13:20;10.63;;;4.00;;
3189;SDS011;1606;51.946;10.558;2023-07-08T06:15:48;10.63;;;4.90;;
3189;SDS011;1606;51.946;10.558;2023-07-08T06:18:16;12.30;;;5.43;;
3189;SDS011;1606;51.946;10.558;2023-07-08T06:20:50;16.10;;;5.60;;
3189;SDS011;1606;51.946;10.558;2023-07-08T06:23:18;14.50;;;5.93;;
3189;SDS011;1606;51.946;10.558;2023-07-08T06:25:46;11.00;;;4.60;;
3189;SDS011;1606;51.946;10.558;2023-07-08T06:28:15;10.87;;;4.77;;
3189;SDS011;1606;51.946;10.558;2023-07-08T06:30:43;10.60;;;5.00;;
3189;SDS011;1606;51.946;10.558;2023-07-08T06:33:11;12.17;;;4.70;;
3189;SDS011;1606;51.946;10.558;2023-07-08T06:35:40;13.50;;;4.47;;
3189;SDS011;1606;51.946;10.558;2023-07-08T06:38:08;18.83;;;5.10;;
3189;SDS011;1606;51.946;10.558;2023-07-08T06:40:36;9.93;;;4.23;;
3189;SDS011;1606;51.946;10.558;2023-07-08T06:43:04;11.40;;;4.40;;
3189;SDS011;1606;51.946;10.558;2023-07-08T06:45:33;11.23;;;4.83;;
3189;SDS011;1606;51.946;10.558;2023-07-08T06:48:01;13.40;;;4.23;;
3189;SDS011;1606;51.946;10.558;2023-07-08T06:50:29;10.33;;;5.33;;
3189;SDS011;1606;51.946;10.558;2023-07-08T06:52:57;15.57;;;4.80;;
3189;SDS011;1606;51.946;10.558;2023-07-08T06:55:25;13.97;;;5.13;;
3189;SDS011;1606;51.946;10.558;2023-07-08T06:57:52;10.50;;;4.53;;
3189;SDS011;1606;51.946;10.558;2023-07-08T07:00:20;10.73;;;4.97;;
3189;SDS011;1606;51.946;10.558;2023-07-08T07:02:49;9.80;;;4.57;;
3189;SDS011;1606;51.946;10.558;2023-07-08T07:05:17;9.67;;;3.90;;
3189;SDS011;1606;51.946;10.558;2023-07-08T07:07:48;12.40;;;4.50;;
3189;SDS011;1606;51.946;10.558;2023-07-08T07:10:18;12.63;;;5.00;;
3189;SDS011;1606;51.946;10.558;2023-07-08T07:12:46;10.67;;;4.70;;
3189;SDS011;1606;51.946;10.558;2023-07-08T07:15:14;8.60;;;3.90;;
3189;SDS011;1606;51.946;10.558;2023-07-08T07:17:42;11.03;;;4.47;;
3189;SDS011;1606;51.946;10.558;2023-07-08T07:20:12;12.73;;;5.20;;
3189;SDS011;1606;51.946;10.558;2023-07-08T07:22:40;8.57;;;4.53;;
3189;SDS011;1606;51.946;10.558;2023-07-08T07:25:08;11.52;;;4.57;;
3189;SDS011;1606;51.946;10.558;2023-07-08T07:27:36;10.27;;;4.27;;
3189;SDS011;1606;51.946;10.558;2023-07-08T07:30:04;7.97;;;3.80;;
3189;SDS011;1606;51.946;10.558;2023-07-08T07:32:33;8.27;;;3.93;;
3189;SDS011;1606;51.946;10.558;2023-07-08T07:35:01;12.40;;;4.57;;
3189;SDS011;1606;51.946;10.558;2023-07-08T07:37:30;12.90;;;4.40;;
3189;SDS011;1606;51.946;10.558;2023-07-08T07:39:58;8.77;;;4.47;;
3189;SDS011;1606;51.946;10.558;2023-07-08T07:42:27;10.10;;;4.67;;
3189;SDS011;1606;51.946;10.558;2023-07-08T07:44:55;9.00;;;4.10;;
3189;SDS011;1606;51.946;10.558;2023-07-08T07:47:23;7.50;;;3.77;;
3189;SDS011;1606;51.946;10.558;2023-07-08T07:49:52;12.00;;;4.33;;
3189;SDS011;1606;51.946;10.558;2023-07-08T07:52:20;8.13;;;3.90;;
3189;SDS011;1606;51.946;10.558;2023-07-08T07:54:51;11.57;;;4.03;;
3189;SDS011;1606;51.946;10.558;2023-07-08T07:57:24;8.80;;;4.20;;
3189;SDS011;1606;51.946;10.558;2023-07-08T07:59:52;8.57;;;4.23;;
3189;SDS011;1606;51.946;10.558;2023-07-08T08:02:23;8.23;;;3.73;;
3189;SDS011;1606;51.946;10.558;2023-07-08T08:04:50;7.87;;;4.07;;
3189;SDS011;1606;51.946;10.558;2023-07-08T08:07:18;9.40;;;3.50;;
3189;SDS011;1606;51.946;10.558;2023-07-08T08:09:46;11.10;;;3.50;;
3189;SDS011;1606;51.946;10.558;2023-07-08T08:12:15;7.60;;;3.43;;
3189;SDS011;1606;51.946;10.558;2023-07-08T08:14:43;8.60;;;4.30;;
3189;SDS011;1606;51.946;10.558;2023-07-08T08:17:12;7.90;;;3.47;;
3189;SDS011;1606;51.946;10.558;2023-07-08T08:19:40;7.90;;;3.87;;
3189;SDS011;1606;51.946;10.558;2023-07-08T08:22:08;7.93;;;3.90;;
3189;SDS011;1606;51.946;10.558;2023-07-08T08:24:36;7.33;;;3.87;;
3189;SDS011;1606;51.946;10.558;2023-07-08T08:27:03;10.80;;;4.10;;
3189;SDS011;1606;51.946;10.558;2023-07-08T08:29:33;7.90;;;3.80;;
3189;SDS011;1606;51.946;10.558;2023-07-08T08:32:01;8.40;;;3.97;;
3189;SDS011;1606;51.946;10.558;2023-07-08T08:34:29;8.30;;;4.13;;
3189;SDS011;1606;51.946;10.558;2023-07-08T08:36:58;9.03;;;4.23;;
3189;SDS011;1606;51.946;10.558;2023-07-08T08:39:25;7.90;;;3.50;;
3189;SDS011;1606;51.946;10.558;2023-07-08T08:41:55;9.07;;;4.00;;
3189;SDS011;1606;51.946;10.558;2023-07-08T08:44:27;8.17;;;4.17;;
3189;SDS011;1606;51.946;10.558;2023-07-08T08:47:02;8.00;;;3.43;;
3189;SDS011;1606;51.946;10.558;2023-07-08T08:49:35;9.67;;;3.67;;
3189;SDS011;1606;51.946;10.558;2023-07-08T08:52:08;8.93;;;4.23;;
3189;SDS011;1606;51.946;10.558;2023-07-08T08:54:36;8.23;;;3.80;;
3189;SDS011;1606;51.946;10.558;2023-07-08T08:57:06;10.03;;;4.00;;
3189;SDS011;1606;51.946;10.558;2023-07-08T08:59:44;8.30;;;3.70;;
3189;SDS011;1606;51.946;10.558;2023-07-08T09:02:22;9.33;;;4.10;;
3189;SDS011;1606;51.946;10.558;2023-07-08T09:04:54;10.40;;;4.30;;
3189;SDS011;1606;51.946;10.558;2023-07-08T09:07:25;10.03;;;3.67;;
3189;SDS011;1606;51.946;10.558;2023-07-08T09:09:58;9.30;;;3.70;;
3189;SDS011;1606;51.946;10.558;2023-07-08T09:12:30;8.17;;;3.90;;
3189;SDS011;1606;51.946;10.558;2023-07-08T09:15:03;7.93;;;3.67;;
3189;SDS011;1606;51.946;10.558;2023-07-08T09:17:40;9.23;;;4.03;;
3189;SDS011;1606;51.946;10.558;2023-07-08T09:20:12;8.43;;;4.07;;
3189;SDS011;1606;51.946;10.558;2023-07-08T09:22:49;7.90;;;3.73;;
3189;SDS011;1606;51.946;10.558;2023-07-08T09:25:27;8.43;;;4.17;;
3189;SDS011;1606;51.946;10.558;2023-07-08T09:27:59;9.17;;;4.47;;
3189;SDS011;1606;51.946;10.558;2023-07-08T09:30:27;7.80;;;3.53;;
3189;SDS011;1606;51.946;10.558;2023-07-08T09:32:58;6.70;;;3.57;;
3189;SDS011;1606;51.946;10.558;2023-07-08T09:35:38;8.57;;;4.17;;
3189;SDS011;1606;51.946;10.558;2023-07-08T09:38:09;7.43;;;3.70;;
3189;SDS011;1606;51.946;10.558;2023-07-08T09:40:42;9.57;;;4.50;;
3189;SDS011;1606;51.946;10.558;2023-07-08T09:43:16;8.77;;;3.67;;
3189;SDS011;1606;51.946;10.558;2023-07-08T09:45:50;7.27;;;4.20;;
3189;SDS011;1606;51.946;10.558;2023-07-08T09:48:21;8.60;;;3.87;;
3189;SDS011;1606;51.946;10.558;2023-07-08T09:50:52;7.20;;;4.10;;
3189;SDS011;1606;51.946;10.558;2023-07-08T09:53:21;8.80;;;3.50;;
3189;SDS011;1606;51.946;10.558;2023-07-08T09:55:49;9.70;;;3.47;;
3189;SDS011;1606;51.946;10.558;2023-07-08T09:58:19;8.00;;;3.60;;
3189;SDS011;1606;51.946;10.558;2023-07-08T10:00:52;10.70;;;3.40;;
3189;SDS011;1606;51.946;10.558;2023-07-08T10:03:25;7.90;;;3.77;;
3189;SDS011;1606;51.946;10.558;2023-07-08T10:05:57;8.30;;;3.80;;
3189;SDS011;1606;51.946;10.558;2023-07-08T10:08:28;7.50;;;3.83;;
3189;SDS011;1606;51.946;10.558;2023-07-08T10:11:09;7.70;;;4.80;;
3189;SDS011;1606;51.946;10.558;2023-07-08T10:13:43;9.67;;;4.50;;
3189;SDS011;1606;51.946;10.558;2023-07-08T10:16:23;7.57;;;4.20;;
3189;SDS011;1606;51.946;10.558;2023-07-08T10:18:55;10.40;;;3.80;;
3189;SDS011;1606;51.946;10.558;2023-07-08T10:21:26;9.40;;;4.20;;
3189;SDS011;1606;51.946;10.558;2023-07-08T10:24:04;7.00;;;3.90;;
3189;SDS011;1606;51.946;10.558;2023-07-08T10:26:48;7.60;;;4.10;;
3189;SDS011;1606;51.946;10.558;2023-07-08T10:29:24;8.60;;;4.10;;
3189;SDS011;1606;51.946;10.558;2023-07-08T10:32:00;8.73;;;4.00;;
3189;SDS011;1606;51.946;10.558;2023-07-08T10:34:39;8.37;;;4.20;;
3189;SDS011;1606;51.946;10.558;2023-07-08T10:37:15;9.20;;;4.70;;
3189;SDS011;1606;51.946;10.558;2023-07-08T10:39:53;8.67;;;4.30;;
3189;SDS011;1606;51.946;10.558;2023-07-08T10:42:33;8.07;;;4.47;;
3189;SDS011;1606;51.946;10.558;2023-07-08T10:45:15;8.43;;;4.03;;
3189;SDS011;1606;51.946;10.558;2023-07-08T10:47:56;9.13;;;4.10;;
3189;SDS011;1606;51.946;10.558;2023-07-08T10:50:40;10.37;;;5.00;;
3189;SDS011;1606;51.946;10.558;2023-07-08T10:53:35;7.47;;;4.27;;
3189;SDS011;1606;51.946;10.558;2023-07-08T10:56:12;9.20;;;5.00;;
3189;SDS011;1606;51.946;10.558;2023-07-08T10:58:54;9.73;;;4.97;;
3189;SDS011;1606;51.946;10.558;2023-07-08T11:01:36;9.90;;;4.80;;
3189;SDS011;1606;51.946;10.558;2023-07-08T11:04:19;8.10;;;5.00;;
3189;SDS011;1606;51.946;10.558;2023-07-08T11:07:04;9.07;;;5.27;;
3189;SDS011;1606;51.946;10.558;2023-07-08T11:09:39;9.47;;;4.60;;
3189;SDS011;1606;51.946;10.558;2023-07-08T11:12:27;8.17;;;5.07;;
3189;SDS011;1606;51.946;10.558;2023-07-08T11:15:02;7.30;;;4.80;;
3189;SDS011;1606;51.946;10.558;2023-07-08T11:17:35;8.37;;;4.43;;
3189;SDS011;1606;51.946;10.558;2023-07-08T11:20:12;9.80;;;3.93;;
3189;SDS011;1606;51.946;10.558;2023-07-08T11:22:47;10.00;;;5.10;;
3189;SDS011;1606;51.946;10.558;2023-07-08T11:25:20;8.47;;;4.67;;
3189;SDS011;1606;51.946;10.558;2023-07-08T11:27:51;9.50;;;4.53;;
3189;SDS011;1606;51.946;10.558;2023-07-08T11:30:22;9.97;;;5.07;;
3189;SDS011;1606;51.946;10.558;2023-07-08T11:32:54;8.50;;;4.30;;
3189;SDS011;1606;51.946;10.558;2023-07-08T11:35:32;9.20;;;4.80;;
3189;SDS011;1606;51.946;10.558;2023-07-08T11:38:04;8.40;;;4.43;;
3189;SDS011;1606;51.946;10.558;2023-07-08T11:40:36;9.33;;;4.77;;
3189;SDS011;1606;51.946;10.558;2023-07-08T11:43:16;8.97;;;5.17;;
3189;SDS011;1606;51.946;10.558;2023-07-08T11:45:46;9.40;;;4.60;;
3189;SDS011;1606;51.946;10.558;2023-07-08T11:48:17;10.07;;;4.70;;
3189;SDS011;1606;51.946;10.558;2023-07-08T11:50:51;8.40;;;4.70;;
3189;SDS011;1606;51.946;10.558;2023-07-08T11:53:38;11.30;;;5.27;;
3189;SDS011;1606;51.946;10.558;2023-07-08T11:56:19;8.43;;;4.80;;
3189;SDS011;1606;51.946;10.558;2023-07-08T11:58:53;9.37;;;4.90;;
3189;SDS011;1606;51.946;10.558;2023-07-08T12:01:28;9.10;;;5.03;;
3189;SDS011;1606;51.946;10.558;2023-07-08T12:04:00;7.40;;;4.13;;
3189;SDS011;1606;51.946;10.558;2023-07-08T12:06:46;9.70;;;5.17;;
3189;SDS011;1606;51.946;10.558;2023-07-08T12:09:20;8.50;;;4.90;;
3189;SDS011;1606;51.946;10.558;2023-07-08T12:11:53;12.13;;;4.83;;
3189;SDS011;1606;51.946;10.558;2023-07-08T12:14:23;7.70;;;4.33;;
3189;SDS011;1606;51.946;10.558;2023-07-08T12:16:52;9.07;;;5.00;;
3189;SDS011;1606;51.946;10.558;2023-07-08T12:19:20;7.70;;;4.20;;
3189;SDS011;1606;51.946;10.558;2023-07-08T12:21:55;10.73;;;5.17;;
3189;SDS011;1606;51.946;10.558;2023-07-08T12:24:24;9.07;;;5.30;;
3189;SDS011;1606;51.946;10.558;2023-07-08T12:26:53;8.20;;;4.70;;
3189;SDS011;1606;51.946;10.558;2023-07-08T12:29:21;11.60;;;5.40;;
3189;SDS011;1606;51.946;10.558;2023-07-08T12:31:49;8.07;;;5.10;;
3189;SDS011;1606;51.946;10.558;2023-07-08T12:34:17;9.10;;;4.83;;
3189;SDS011;1606;51.946;10.558;2023-07-08T12:36:45;9.63;;;5.40;;
3189;SDS011;1606;51.946;10.558;2023-07-08T12:39:14;13.47;;;5.00;;
3189;SDS011;1606;51.946;10.558;2023-07-08T12:41:45;8.83;;;5.10;;
3189;SDS011;1606;51.946;10.558;2023-07-08T12:44:16;8.77;;;5.13;;
3189;SDS011;1606;51.946;10.558;2023-07-08T12:46:47;8.00;;;4.80;;
3189;SDS011;1606;51.946;10.558;2023-07-08T12:49:15;11.43;;;4.83;;
3189;SDS011;1606;51.946;10.558;2023-07-08T12:51:45;8.20;;;5.10;;
3189;SDS011;1606;51.946;10.558;2023-07-08T12:54:13;8.17;;;4.73;;
3189;SDS011;1606;51.946;10.558;2023-07-08T12:56:42;9.40;;;5.30;;
3189;SDS011;1606;51.946;10.558;2023-07-08T12:59:14;8.60;;;4.80;;
3189;SDS011;1606;51.946;10.558;2023-07-08T13:01:47;10.23;;;5.07;;
3189;SDS011;1606;51.946;10.558;2023-07-08T13:04:16;11.83;;;5.73;;
3189;SDS011;1606;51.946;10.558;2023-07-08T13:06:45;9.10;;;5.33;;
3189;SDS011;1606;51.946;10.558;2023-07-08T13:09:20;9.07;;;5.80;;
3189;SDS011;1606;51.946;10.558;2023-07-08T13:11:55;8.20;;;4.80;;
3189;SDS011;1606;51.946;10.558;2023-07-08T13:14:24;9.63;;;4.90;;
3189;SDS011;1606;51.946;10.558;2023-07-08T13:16:52;9.43;;;5.40;;
3189;SDS011;1606;51.946;10.558;2023-07-08T13:19:21;9.83;;;5.63;;
3189;SDS011;1606;51.946;10.558;2023-07-08T13:21:50;11.57;;;5.47;;
3189;SDS011;1606;51.946;10.558;2023-07-08T13:24:18;9.40;;;5.18;;
3189;SDS011;1606;51.946;10.558;2023-07-08T13:26:49;10.23;;;5.10;;
3189;SDS011;1606;51.946;10.558;2023-07-08T13:29:18;8.83;;;5.57;;
3189;SDS011;1606;51.946;10.558;2023-07-08T13:31:48;9.30;;;5.10;;
3189;SDS011;1606;51.946;10.558;2023-07-08T13:34:24;8.73;;;5.00;;
3189;SDS011;1606;51.946;10.558;2023-07-08T13:36:52;8.50;;;5.10;;
3189;SDS011;1606;51.946;10.558;2023-07-08T13:39:22;9.60;;;5.87;;
3189;SDS011;1606;51.946;10.558;2023-07-08T13:41:53;14.20;;;5.93;;
3189;SDS011;1606;51.946;10.558;2023-07-08T13:44:22;10.13;;;5.97;;
3189;SDS011;1606;51.946;10.558;2023-07-08T13:46:51;8.53;;;5.20;;
3189;SDS011;1606;51.946;10.558;2023-07-08T13:49:22;8.20;;;4.97;;
3189;SDS011;1606;51.946;10.558;2023-07-08T13:52:04;9.20;;;5.60;;
3189;SDS011;1606;51.946;10.558;2023-07-08T13:54:34;8.10;;;4.80;;
3189;SDS011;1606;51.946;10.558;2023-07-08T13:57:08;11.20;;;4.60;;
3189;SDS011;1606;51.946;10.558;2023-07-08T13:59:39;9.50;;;5.63;;
3189;SDS011;1606;51.946;10.558;2023-07-08T14:02:14;8.80;;;5.67;;
3189;SDS011;1606;51.946;10.558;2023-07-08T14:04:43;8.20;;;4.87;;
3189;SDS011;1606;51.946;10.558;2023-07-08T14:07:13;8.90;;;4.87;;
3189;SDS011;1606;51.946;10.558;2023-07-08T14:09:44;8.73;;;5.23;;
3189;SDS011;1606;51.946;10.558;2023-07-08T14:12:12;9.63;;;5.90;;
3189;SDS011;1606;51.946;10.558;2023-07-08T14:14:41;8.60;;;5.10;;
3189;SDS011;1606;51.946;10.558;2023-07-08T14:17:09;9.00;;;5.27;;
3189;SDS011;1606;51.946;10.558;2023-07-08T14:19:39;11.00;;;5.80;;
3189;SDS011;1606;51.946;10.558;2023-07-08T14:22:15;11.50;;;5.10;;
3189;SDS011;1606;51.946;10.558;2023-07-08T14:24:49;10.63;;;5.40;;
3189;SDS011;1606;51.946;10.558;2023-07-08T14:27:17;8.70;;;5.03;;
3189;SDS011;1606;51.946;10.558;2023-07-08T14:29:47;9.07;;;5.87;;
3189;SDS011;1606;51.946;10.558;2023-07-08T14:32:18;9.07;;;5.00;;
3189;SDS011;1606;51.946;10.558;2023-07-08T14:34:51;8.40;;;5.33;;
3189;SDS011;1606;51.946;10.558;2023-07-08T14:37:20;8.23;;;4.90;;
3189;SDS011;1606;51.946;10.558;2023-07-08T14:39:48;8.87;;;5.07;;
3189;SDS011;1606;51.946;10.558;2023-07-08T14:42:18;9.43;;;4.90;;
3189;SDS011;1606;51.946;10.558;2023-07-08T14:44:48;8.30;;;5.00;;
3189;SDS011;1606;51.946;10.558;2023-07-08T14:47:19;8.77;;;5.00;;
3189;SDS011;1606;51.946;10.558;2023-07-08T14:49:48;9.63;;;5.23;;
3189;SDS011;1606;51.946;10.558;2023-07-08T14:52:16;8.80;;;5.47;;
3189;SDS011;1606;51.946;10.558;2023-07-08T14:54:44;9.70;;;5.80;;
3189;SDS011;1606;51.946;10.558;2023-07-08T14:57:12;9.97;;;4.80;;
3189;SDS011;1606;51.946;10.558;2023-07-08T14:59:43;10.00;;;6.17;;
3189;SDS011;1606;51.946;10.558;2023-07-08T15:02:17;8.30;;;4.60;;
3189;SDS011;1606;51.946;10.558;2023-07-08T15:04:47;8.13;;;4.73;;
3189;SDS011;1606;51.946;10.558;2023-07-08T15:07:15;9.83;;;5.13;;
3189;SDS011;1606;51.946;10.558;2023-07-08T15:09:43;8.40;;;5.23;;
3189;SDS011;1606;51.946;10.558;2023-07-08T15:12:11;9.73;;;5.70;;
3189;SDS011;1606;51.946;10.558;2023-07-08T15:14:39;9.80;;;5.17;;
3189;SDS011;1606;51.946;10.558;2023-07-08T15:17:09;10.20;;;5.93;;